sensor_id;sensor_type;location;lat;lon;timestamp;pressure;altitude;pressure_sealevel;temperature;humidity
13029;BME280;6581;42.662;23.402;2022-10-16T00:01:43;95980.63;;;10.92;90.00
13029;BME280;6581;42.662;23.402;2022-10-16T00:04:10;95979.00;;;10.87;90.24
13029;BME280;6581;42.662;23.402;2022-10-16T00:06:39;95995.59;;;10.84;90.08
13029;BME280;6581;42.662;23.402;2022-10-16T00:09:06;95990.47;;;10.76;90.22
13029;BME280;6581;42.662;23.402;2022-10-16T00:11:35;95988.06;;;10.86;90.36
13029;BME280;6581;42.662;23.402;2022-10-16T00:14:06;95984.41;;;10.75;89.99
13029;BME280;6581;42.662;23.402;2022-10-16T00:16:57;95984.13;;;10.64;91.07
13029;BME280;6581;42.662;23.402;2022-10-16T00:19:24;95986.00;;;10.64;93.58
13029;BME280;6581;42.662;23.402;2022-10-16T00:21:53;95991.13;;;10.57;94.60
13029;BME280;6581;42.662;23.402;2022-10-16T00:24:38;95998.22;;;10.53;96.25
13029;BME280;6581;42.662;23.402;2022-10-16T00:27:05;96003.00;;;10.47;96.93
13029;BME280;6581;42.662;23.402;2022-10-16T00:29:32;95996.16;;;10.46;96.45
13029;BME280;6581;42.662;23.402;2022-10-16T00:31:59;95999.16;;;10.45;96.43
13029;BME280;6581;42.662;23.402;2022-10-16T00:34:26;95997.53;;;10.40;95.78
13029;BME280;6581;42.662;23.402;2022-10-16T00:37:19;96011.09;;;10.39;95.98
13029;BME280;6581;42.662;23.402;2022-10-16T00:39:46;96011.31;;;10.34;96.26
13029;BME280;6581;42.662;23.402;2022-10-16T00:42:15;96013.66;;;10.35;95.41
13029;BME280;6581;42.662;23.402;2022-10-16T00:44:47;96015.84;;;10.33;95.54
13029;BME280;6581;42.662;23.402;2022-10-16T00:47:19;96004.81;;;10.31;95.67
13029;BME280;6581;42.662;23.402;2022-10-16T00:49:48;96008.75;;;10.21;96.79
13029;BME280;6581;42.662;23.402;2022-10-16T00:52:18;96004.97;;;10.10;97.04
13029;BME280;6581;42.662;23.402;2022-10-16T00:54:46;96002.56;;;10.05;98.19
13029;BME280;6581;42.662;23.402;2022-10-16T00:57:14;96000.16;;;10.00;97.64
13029;BME280;6581;42.662;23.402;2022-10-16T00:59:41;96001.78;;;10.05;98.24
13029;BME280;6581;42.662;23.402;2022-10-16T01:02:11;96011.53;;;10.01;97.62
13029;BME280;6581;42.662;23.402;2022-10-16T01:04:40;96017.13;;;9.99;98.04
13029;BME280;6581;42.662;23.402;2022-10-16T01:07:12;96023.34;;;9.91;98.56
13029;BME280;6581;42.662;23.402;2022-10-16T01:09:50;96021.69;;;9.87;98.28
13029;BME280;6581;42.662;23.402;2022-10-16T01:12:26;96020.06;;;9.82;97.75
13029;BME280;6581;42.662;23.402;2022-10-16T01:14:59;96027.22;;;9.82;97.39
13029;BME280;6581;42.662;23.402;2022-10-16T01:17:33;96025.16;;;9.75;97.65
13029;BME280;6581;42.662;23.402;2022-10-16T01:20:10;96017.13;;;9.71;97.97
13029;BME280;6581;42.662;23.402;2022-10-16T01:22:55;96023.72;;;9.65;98.12
13029;BME280;6581;42.662;23.402;2022-10-16T01:25:36;96018.56;;;9.57;99.65
13029;BME280;6581;42.662;23.402;2022-10-16T01:28:09;96008.63;;;9.54;100.00
13029;BME280;6581;42.662;23.402;2022-10-16T01:30:40;96007.84;;;9.53;99.73
13029;BME280;6581;42.662;23.402;2022-10-16T01:33:14;96009.31;;;9.51;98.46
13029;BME280;6581;42.662;23.402;2022-10-16T01:35:46;96002.59;;;9.41;97.64
13029;BME280;6581;42.662;23.402;2022-10-16T01:38:17;96006.22;;;9.49;97.45
13029;BME280;6581;42.662;23.402;2022-10-16T01:40:49;95997.84;;;9.47;97.14
13029;BME280;6581;42.662;23.402;2022-10-16T01:43:48;96006.00;;;9.42;96.68
13029;BME280;6581;42.662;23.402;2022-10-16T01:46:18;96004.81;;;9.39;96.64
13029;BME280;6581;42.662;23.402;2022-10-16T01:48:48;96007.09;;;9.41;96.20
13029;BME280;6581;42.662;23.402;2022-10-16T01:51:17;96014.63;;;9.39;96.56
13029;BME280;6581;42.662;23.402;2022-10-16T01:53:48;96025.06;;;9.35;96.50
13029;BME280;6581;42.662;23.402;2022-10-16T01:56:17;96023.75;;;9.29;97.01
13029;BME280;6581;42.662;23.402;2022-10-16T01:58:50;96029.69;;;9.26;96.54
13029;BME280;6581;42.662;23.402;2022-10-16T02:01:22;96019.09;;;9.26;96.38
13029;BME280;6581;42.662;23.402;2022-10-16T02:03:52;96024.28;;;9.22;96.31
13029;BME280;6581;42.662;23.402;2022-10-16T02:06:21;96024.19;;;9.19;95.95
13029;BME280;6581;42.662;23.402;2022-10-16T02:08:48;96025.94;;;9.15;96.24
13029;BME280;6581;42.662;23.402;2022-10-16T02:11:16;96027.50;;;9.16;95.89
13029;BME280;6581;42.662;23.402;2022-10-16T02:13:45;96032.75;;;9.04;96.49
13029;BME280;6581;42.662;23.402;2022-10-16T02:16:17;96042.44;;;9.00;97.35
13029;BME280;6581;42.662;23.402;2022-10-16T02:18:44;96042.91;;;9.02;97.15
13029;BME280;6581;42.662;23.402;2022-10-16T02:21:15;96046.31;;;9.02;97.43
13029;BME280;6581;42.662;23.402;2022-10-16T02:23:48;96044.66;;;8.98;97.40
13029;BME280;6581;42.662;23.402;2022-10-16T02:26:24;96041.03;;;9.02;97.44
13029;BME280;6581;42.662;23.402;2022-10-16T02:28:59;96045.31;;;9.07;97.77
13029;BME280;6581;42.662;23.402;2022-10-16T02:31:34;96057.66;;;9.03;98.60
13029;BME280;6581;42.662;23.402;2022-10-16T02:34:03;96046.94;;;8.99;98.51
13029;BME280;6581;42.662;23.402;2022-10-16T02:36:35;96051.47;;;8.99;98.63
13029;BME280;6581;42.662;23.402;2022-10-16T02:39:28;96053.69;;;8.97;98.60
13029;BME280;6581;42.662;23.402;2022-10-16T02:41:56;96048.28;;;8.93;98.81
13029;BME280;6581;42.662;23.402;2022-10-16T02:44:23;96053.88;;;8.92;98.85
13029;BME280;6581;42.662;23.402;2022-10-16T02:46:52;96054.56;;;8.88;98.13
13029;BME280;6581;42.662;23.402;2022-10-16T02:49:19;96057.81;;;8.85;98.42
13029;BME280;6581;42.662;23.402;2022-10-16T02:51:46;96059.78;;;8.76;98.45
13029;BME280;6581;42.662;23.402;2022-10-16T02:54:13;96057.34;;;8.71;98.73
13029;BME280;6581;42.662;23.402;2022-10-16T02:56:41;96060.19;;;8.66;98.71
13029;BME280;6581;42.662;23.402;2022-10-16T02:59:08;96065.25;;;8.59;99.27
13029;BME280;6581;42.662;23.402;2022-10-16T03:01:35;96067.47;;;8.69;99.12
13029;BME280;6581;42.662;23.402;2022-10-16T03:04:04;96067.38;;;8.66;99.01
13029;BME280;6581;42.662;23.402;2022-10-16T03:06:31;96073.97;;;8.72;98.74
13029;BME280;6581;42.662;23.402;2022-10-16T03:08:58;96065.69;;;8.61;99.66
13029;BME280;6581;42.662;23.402;2022-10-16T03:11:25;96061.94;;;8.62;99.61
13029;BME280;6581;42.662;23.402;2022-10-16T03:13:53;96063.94;;;8.65;99.50
13029;BME280;6581;42.662;23.402;2022-10-16T03:16:21;96070.00;;;8.66;99.25
13029;BME280;6581;42.662;23.402;2022-10-16T03:18:48;96070.00;;;8.66;99.70
13029;BME280;6581;42.662;23.402;2022-10-16T03:21:17;96072.31;;;8.67;99.28
13029;BME280;6581;42.662;23.402;2022-10-16T03:23:44;96071.31;;;8.60;99.84
13029;BME280;6581;42.662;23.402;2022-10-16T03:26:12;96079.88;;;8.57;99.86
13029;BME280;6581;42.662;23.402;2022-10-16T03:28:39;96081.59;;;8.53;100.00
13029;BME280;6581;42.662;23.402;2022-10-16T03:31:06;96067.84;;;8.47;100.00
13029;BME280;6581;42.662;23.402;2022-10-16T03:33:34;96079.22;;;8.39;99.51
13029;BME280;6581;42.662;23.402;2022-10-16T03:36:01;96079.88;;;8.36;99.69
13029;BME280;6581;42.662;23.402;2022-10-16T03:38:29;96077.25;;;8.36;99.93
13029;BME280;6581;42.662;23.402;2022-10-16T03:40:56;96075.56;;;8.31;100.00
13029;BME280;6581;42.662;23.402;2022-10-16T03:43:24;96076.19;;;8.28;100.00
13029;BME280;6581;42.662;23.402;2022-10-16T03:45:51;96076.19;;;8.28;100.00
13029;BME280;6581;42.662;23.402;2022-10-16T03:48:18;96071.25;;;8.27;100.00
13029;BME280;6581;42.662;23.402;2022-10-16T03:50:45;96073.75;;;8.23;100.00
13029;BME280;6581;42.662;23.402;2022-10-16T03:53:13;96077.78;;;8.21;100.00
13029;BME280;6581;42.662;23.402;2022-10-16T03:55:42;96083.59;;;8.14;100.00
13029;BME280;6581;42.662;23.402;2022-10-16T03:58:10;96070.91;;;8.08;100.00
13029;BME280;6581;42.662;23.402;2022-10-16T04:00:40;96067.38;;;8.03;100.00
13029;BME280;6581;42.662;23.402;2022-10-16T04:03:07;96074.84;;;8.01;100.00
13029;BME280;6581;42.662;23.402;2022-10-16T04:05:34;96074.09;;;8.01;100.00
13029;BME280;6581;42.662;23.402;2022-10-16T04:08:01;96076.38;;;8.02;100.00
13029;BME280;6581;42.662;23.402;2022-10-16T04:10:29;96069.88;;;8.00;100.00
13029;BME280;6581;42.662;23.402;2022-10-16T04:12:57;96070.53;;;7.97;100.00
13029;BME280;6581;42.662;23.402;2022-10-16T04:15:25;96071.09;;;8.02;100.00
13029;BME280;6581;42.662;23.402;2022-10-16T04:17:52;96075.59;;;8.02;100.00
13029;BME280;6581;42.662;23.402;2022-10-16T04:20:20;96079.19;;;7.97;100.00
13029;BME280;6581;42.662;23.402;2022-10-16T04:22:47;96081.22;;;8.00;100.00
13029;BME280;6581;42.662;23.402;2022-10-16T04:25:14;96079.16;;;8.06;100.00
13029;BME280;6581;42.662;23.402;2022-10-16T04:27:41;96085.06;;;8.03;100.00
13029;BME280;6581;42.662;23.402;2022-10-16T04:30:10;96070.00;;;8.03;100.00
13029;BME280;6581;42.662;23.402;2022-10-16T04:32:37;96082.25;;;8.08;100.00
13029;BME280;6581;42.662;23.402;2022-10-16T04:35:06;96088.28;;;8.09;100.00
13029;BME280;6581;42.662;23.402;2022-10-16T04:37:34;96085.19;;;8.07;100.00
13029;BME280;6581;42.662;23.402;2022-10-16T04:40:01;96088.66;;;7.98;100.00
13029;BME280;6581;42.662;23.402;2022-10-16T04:42:28;96095.38;;;7.96;100.00
13029;BME280;6581;42.662;23.402;2022-10-16T04:44:56;96101.38;;;7.76;100.00
13029;BME280;6581;42.662;23.402;2022-10-16T04:47:24;96105.69;;;7.80;100.00
13029;BME280;6581;42.662;23.402;2022-10-16T04:49:51;96098.84;;;7.88;100.00
13029;BME280;6581;42.662;23.402;2022-10-16T04:52:18;96098.84;;;7.88;100.00
13029;BME280;6581;42.662;23.402;2022-10-16T04:54:47;96104.25;;;7.91;100.00
13029;BME280;6581;42.662;23.402;2022-10-16T04:57:16;96115.53;;;8.00;100.00
13029;BME280;6581;42.662;23.402;2022-10-16T04:59:43;96115.06;;;7.98;100.00
13029;BME280;6581;42.662;23.402;2022-10-16T05:02:10;96114.63;;;7.96;100.00
13029;BME280;6581;42.662;23.402;2022-10-16T05:04:39;96113.66;;;8.01;100.00
13029;BME280;6581;42.662;23.402;2022-10-16T05:07:06;96121.53;;;8.10;100.00
13029;BME280;6581;42.662;23.402;2022-10-16T05:09:33;96133.63;;;8.11;100.00
13029;BME280;6581;42.662;23.402;2022-10-16T05:12:00;96127.38;;;8.15;100.00
13029;BME280;6581;42.662;23.402;2022-10-16T05:14:29;96126.84;;;8.22;100.00
13029;BME280;6581;42.662;23.402;2022-10-16T05:16:56;96132.72;;;8.27;100.00
13029;BME280;6581;42.662;23.402;2022-10-16T05:19:23;96133.00;;;8.34;100.00
13029;BME280;6581;42.662;23.402;2022-10-16T05:21:52;96139.72;;;8.32;100.00
13029;BME280;6581;42.662;23.402;2022-10-16T05:24:19;96135.97;;;8.33;100.00
13029;BME280;6581;42.662;23.402;2022-10-16T05:26:46;96139.84;;;8.35;100.00
13029;BME280;6581;42.662;23.402;2022-10-16T05:29:13;96137.19;;;8.35;100.00
13029;BME280;6581;42.662;23.402;2022-10-16T05:31:41;96138.75;;;8.36;100.00
13029;BME280;6581;42.662;23.402;2022-10-16T05:34:08;96140.19;;;8.34;100.00
13029;BME280;6581;42.662;23.402;2022-10-16T05:36:35;96144.03;;;8.36;100.00
13029;BME280;6581;42.662;23.402;2022-10-16T05:39:04;96138.28;;;8.34;100.00
13029;BME280;6581;42.662;23.402;2022-10-16T05:41:31;96139.06;;;8.35;100.00
13029;BME280;6581;42.662;23.402;2022-10-16T05:43:58;96140.50;;;8.32;100.00
13029;BME280;6581;42.662;23.402;2022-10-16T05:46:25;96138.94;;;8.31;100.00
13029;BME280;6581;42.662;23.402;2022-10-16T05:48:54;96144.16;;;8.40;100.00
13029;BME280;6581;42.662;23.402;2022-10-16T05:51:21;96150.66;;;8.42;100.00
13029;BME280;6581;42.662;23.402;2022-10-16T05:53:48;96151.22;;;8.48;100.00
13029;BME280;6581;42.662;23.402;2022-10-16T05:56:16;96162.19;;;8.38;100.00
13029;BME280;6581;42.662;23.402;2022-10-16T05:58:43;96162.81;;;8.35;100.00
13029;BME280;6581;42.662;23.402;2022-10-16T06:01:12;96171.97;;;8.37;100.00
13029;BME280;6581;42.662;23.402;2022-10-16T06:03:40;96164.38;;;8.36;100.00
13029;BME280;6581;42.662;23.402;2022-10-16T06:06:08;96174.50;;;8.34;100.00
13029;BME280;6581;42.662;23.402;2022-10-16T06:08:36;96171.78;;;8.42;100.00
13029;BME280;6581;42.662;23.402;2022-10-16T06:11:05;96176.59;;;8.40;100.00
13029;BME280;6581;42.662;23.402;2022-10-16T06:13:34;96174.25;;;8.48;100.00
13029;BME280;6581;42.662;23.402;2022-10-16T06:16:02;96178.69;;;8.56;100.00
13029;BME280;6581;42.662;23.402;2022-10-16T06:18:30;96184.41;;;8.58;100.00
13029;BME280;6581;42.662;23.402;2022-10-16T06:20:57;96186.06;;;8.62;100.00
13029;BME280;6581;42.662;23.402;2022-10-16T06:23:28;96193.81;;;8.67;100.00
13029;BME280;6581;42.662;23.402;2022-10-16T06:26:04;96190.97;;;8.72;100.00
13029;BME280;6581;42.662;23.402;2022-10-16T06:28:34;96191.69;;;8.81;100.00
13029;BME280;6581;42.662;23.402;2022-10-16T06:31:02;96195.81;;;8.91;100.00
13029;BME280;6581;42.662;23.402;2022-10-16T06:33:29;96203.53;;;8.96;100.00
13029;BME280;6581;42.662;23.402;2022-10-16T06:36:00;96196.75;;;9.07;100.00
13029;BME280;6581;42.662;23.402;2022-10-16T06:38:53;96201.97;;;9.16;99.37
13029;BME280;6581;42.662;23.402;2022-10-16T06:41:22;96205.44;;;9.08;99.37
13029;BME280;6581;42.662;23.402;2022-10-16T06:43:51;96205.94;;;9.22;98.46
13029;BME280;6581;42.662;23.402;2022-10-16T06:46:23;96213.03;;;9.30;97.47
13029;BME280;6581;42.662;23.402;2022-10-16T06:48:52;96216.22;;;9.35;97.61
13029;BME280;6581;42.662;23.402;2022-10-16T06:51:20;96210.53;;;9.58;100.00
13029;BME280;6581;42.662;23.402;2022-10-16T06:53:49;96223.84;;;9.49;98.51
13029;BME280;6581;42.662;23.402;2022-10-16T06:56:17;96218.94;;;9.60;98.13
13029;BME280;6581;42.662;23.402;2022-10-16T06:58:45;96223.44;;;9.59;97.19
13029;BME280;6581;42.662;23.402;2022-10-16T07:01:15;96226.56;;;9.61;95.95
13029;BME280;6581;42.662;23.402;2022-10-16T07:03:44;96228.00;;;9.71;96.93
13029;BME280;6581;42.662;23.402;2022-10-16T07:06:13;96233.09;;;9.76;96.15
13029;BME280;6581;42.662;23.402;2022-10-16T07:08:42;96229.88;;;9.83;97.20
13029;BME280;6581;42.662;23.402;2022-10-16T07:11:12;96233.88;;;9.89;97.47
13029;BME280;6581;42.662;23.402;2022-10-16T07:13:41;96236.63;;;9.92;96.99
13029;BME280;6581;42.662;23.402;2022-10-16T07:16:10;96238.06;;;9.90;96.72
13029;BME280;6581;42.662;23.402;2022-10-16T07:18:40;96237.72;;;9.91;96.45
13029;BME280;6581;42.662;23.402;2022-10-16T07:21:11;96233.44;;;9.99;96.54
13029;BME280;6581;42.662;23.402;2022-10-16T07:23:38;96239.06;;;10.09;96.86
13029;BME280;6581;42.662;23.402;2022-10-16T07:26:06;96236.66;;;10.16;95.86
13029;BME280;6581;42.662;23.402;2022-10-16T07:28:34;96239.22;;;10.25;95.56
13029;BME280;6581;42.662;23.402;2022-10-16T07:31:26;96245.81;;;10.19;95.58
13029;BME280;6581;42.662;23.402;2022-10-16T07:33:55;96240.75;;;10.26;95.54
13029;BME280;6581;42.662;23.402;2022-10-16T07:36:24;96241.84;;;10.37;95.56
13029;BME280;6581;42.662;23.402;2022-10-16T07:38:51;96245.16;;;10.46;95.88
13029;BME280;6581;42.662;23.402;2022-10-16T07:41:19;96242.38;;;10.55;95.49
13029;BME280;6581;42.662;23.402;2022-10-16T07:43:47;96241.16;;;10.64;93.00
13029;BME280;6581;42.662;23.402;2022-10-16T07:46:15;96246.75;;;10.75;92.42
13029;BME280;6581;42.662;23.402;2022-10-16T07:48:43;96246.63;;;10.84;91.97
13029;BME280;6581;42.662;23.402;2022-10-16T07:51:16;96248.03;;;10.93;90.46
13029;BME280;6581;42.662;23.402;2022-10-16T07:53:44;96245.16;;;10.98;90.03
13029;BME280;6581;42.662;23.402;2022-10-16T07:56:12;96248.09;;;11.09;89.07
13029;BME280;6581;42.662;23.402;2022-10-16T07:58:40;96248.50;;;11.23;88.73
13029;BME280;6581;42.662;23.402;2022-10-16T08:01:08;96254.19;;;11.37;88.36
13029;BME280;6581;42.662;23.402;2022-10-16T08:03:37;96251.81;;;11.48;86.80
13029;BME280;6581;42.662;23.402;2022-10-16T08:06:04;96244.38;;;11.53;86.64
13029;BME280;6581;42.662;23.402;2022-10-16T08:08:33;96252.19;;;11.62;85.55
13029;BME280;6581;42.662;23.402;2022-10-16T08:11:01;96254.56;;;11.79;84.61
13029;BME280;6581;42.662;23.402;2022-10-16T08:13:29;96243.94;;;11.95;84.70
13029;BME280;6581;42.662;23.402;2022-10-16T08:15:56;96250.72;;;12.08;83.85
13029;BME280;6581;42.662;23.402;2022-10-16T08:18:24;96251.13;;;12.10;84.27
13029;BME280;6581;42.662;23.402;2022-10-16T08:20:55;96245.75;;;12.22;83.75
13029;BME280;6581;42.662;23.402;2022-10-16T08:23:24;96237.41;;;12.39;83.53
13029;BME280;6581;42.662;23.402;2022-10-16T08:25:53;96237.22;;;12.48;82.46
13029;BME280;6581;42.662;23.402;2022-10-16T08:28:21;96242.06;;;12.62;82.29
13029;BME280;6581;42.662;23.402;2022-10-16T08:30:49;96235.03;;;12.69;80.14
13029;BME280;6581;42.662;23.402;2022-10-16T08:33:16;96238.75;;;12.84;78.38
13029;BME280;6581;42.662;23.402;2022-10-16T08:35:50;96235.72;;;13.01;77.06
13029;BME280;6581;42.662;23.402;2022-10-16T08:38:18;96238.44;;;13.05;77.49
13029;BME280;6581;42.662;23.402;2022-10-16T08:40:45;96234.94;;;13.01;77.37
13029;BME280;6581;42.662;23.402;2022-10-16T08:43:31;96242.66;;;13.25;76.26
13029;BME280;6581;42.662;23.402;2022-10-16T08:46:16;96234.59;;;13.41;73.91
13029;BME280;6581;42.662;23.402;2022-10-16T08:48:49;96241.59;;;13.49;72.58
13029;BME280;6581;42.662;23.402;2022-10-16T08:51:20;96243.56;;;13.52;69.93
13029;BME280;6581;42.662;23.402;2022-10-16T08:53:52;96245.78;;;13.69;70.94
13029;BME280;6581;42.662;23.402;2022-10-16T08:56:21;96249.81;;;13.82;70.57
13029;BME280;6581;42.662;23.402;2022-10-16T08:58:52;96255.97;;;13.86;68.92
13029;BME280;6581;42.662;23.402;2022-10-16T09:01:21;96253.63;;;14.07;68.76
13029;BME280;6581;42.662;23.402;2022-10-16T09:06:46;96249.69;;;14.20;64.98
13029;BME280;6581;42.662;23.402;2022-10-16T09:09:24;96240.28;;;14.04;65.64
13029;BME280;6581;42.662;23.402;2022-10-16T09:12:24;96246.34;;;14.27;64.82
13029;BME280;6581;42.662;23.402;2022-10-16T09:15:02;96243.94;;;14.18;63.56
13029;BME280;6581;42.662;23.402;2022-10-16T09:17:41;96242.38;;;14.17;64.89
13029;BME280;6581;42.662;23.402;2022-10-16T09:20:23;96251.03;;;14.34;66.03
13029;BME280;6581;42.662;23.402;2022-10-16T09:22:55;96240.28;;;14.53;66.66
13029;BME280;6581;42.662;23.402;2022-10-16T09:25:27;96239.72;;;14.67;66.51
13029;BME280;6581;42.662;23.402;2022-10-16T09:27:55;96243.66;;;14.76;64.33
13029;BME280;6581;42.662;23.402;2022-10-16T09:30:27;96238.75;;;14.78;62.88
13029;BME280;6581;42.662;23.402;2022-10-16T09:32:55;96238.81;;;14.85;60.84
13029;BME280;6581;42.662;23.402;2022-10-16T09:35:31;96243.84;;;14.90;60.27
13029;BME280;6581;42.662;23.402;2022-10-16T09:37:59;96247.25;;;14.87;60.48
13029;BME280;6581;42.662;23.402;2022-10-16T09:40:30;96237.00;;;14.89;61.77
13029;BME280;6581;42.662;23.402;2022-10-16T09:43:02;96235.97;;;14.97;60.99
13029;BME280;6581;42.662;23.402;2022-10-16T09:45:32;96227.22;;;15.00;60.21
13029;BME280;6581;42.662;23.402;2022-10-16T09:48:01;96229.34;;;14.88;60.42
13029;BME280;6581;42.662;23.402;2022-10-16T09:50:37;96223.22;;;14.84;60.62
13029;BME280;6581;42.662;23.402;2022-10-16T09:53:07;96227.53;;;14.95;58.46
13029;BME280;6581;42.662;23.402;2022-10-16T09:55:48;96221.03;;;14.93;60.39
13029;BME280;6581;42.662;23.402;2022-10-16T09:58:16;96220.75;;;15.01;60.06
13029;BME280;6581;42.662;23.402;2022-10-16T10:00:52;96225.84;;;15.14;58.08
13029;BME280;6581;42.662;23.402;2022-10-16T10:03:32;96216.84;;;15.25;59.01
13029;BME280;6581;42.662;23.402;2022-10-16T10:06:06;96214.34;;;15.39;58.50
13029;BME280;6581;42.662;23.402;2022-10-16T10:08:34;96211.75;;;15.50;57.11
13029;BME280;6581;42.662;23.402;2022-10-16T10:11:01;96204.69;;;15.65;57.35
13029;BME280;6581;42.662;23.402;2022-10-16T10:13:29;96208.50;;;15.64;56.81
13029;BME280;6581;42.662;23.402;2022-10-16T10:15:58;96210.38;;;15.63;55.69
13029;BME280;6581;42.662;23.402;2022-10-16T10:18:26;96196.34;;;15.70;56.42
13029;BME280;6581;42.662;23.402;2022-10-16T10:21:00;96202.94;;;15.79;54.83
13029;BME280;6581;42.662;23.402;2022-10-16T10:23:28;96200.63;;;15.81;51.82
13029;BME280;6581;42.662;23.402;2022-10-16T10:26:01;96195.75;;;15.90;51.98
13029;BME280;6581;42.662;23.402;2022-10-16T10:28:50;96190.47;;;15.94;52.07
13029;BME280;6581;42.662;23.402;2022-10-16T10:31:28;96182.59;;;16.12;51.54
13029;BME280;6581;42.662;23.402;2022-10-16T10:34:01;96184.06;;;16.09;51.19
13029;BME280;6581;42.662;23.402;2022-10-16T10:36:35;96183.38;;;16.16;50.87
13029;BME280;6581;42.662;23.402;2022-10-16T10:39:07;96185.28;;;16.19;49.51
13029;BME280;6581;42.662;23.402;2022-10-16T10:42:00;96183.47;;;16.30;47.99
13029;BME280;6581;42.662;23.402;2022-10-16T10:44:57;96179.78;;;16.49;47.22
13029;BME280;6581;42.662;23.402;2022-10-16T10:47:40;96172.09;;;16.40;40.24
13029;BME280;6581;42.662;23.402;2022-10-16T10:50:17;96169.69;;;16.28;40.12
13029;BME280;6581;42.662;23.402;2022-10-16T10:52:55;96170.56;;;16.46;40.24
13029;BME280;6581;42.662;23.402;2022-10-16T10:55:31;96170.31;;;16.58;40.80
13029;BME280;6581;42.662;23.402;2022-10-16T10:58:21;96167.94;;;16.53;42.46
13029;BME280;6581;42.662;23.402;2022-10-16T11:00:57;96166.91;;;16.68;41.75
13029;BME280;6581;42.662;23.402;2022-10-16T11:03:46;96162.78;;;16.81;41.24
13029;BME280;6581;42.662;23.402;2022-10-16T11:06:44;96149.88;;;17.05;41.55
13029;BME280;6581;42.662;23.402;2022-10-16T11:09:16;96147.59;;;17.24;42.95
13029;BME280;6581;42.662;23.402;2022-10-16T11:11:48;96151.84;;;17.43;41.94
13029;BME280;6581;42.662;23.402;2022-10-16T11:14:19;96147.25;;;17.22;42.04
13029;BME280;6581;42.662;23.402;2022-10-16T11:16:52;96148.38;;;17.28;42.24
13029;BME280;6581;42.662;23.402;2022-10-16T11:19:39;96147.22;;;17.19;42.16
13029;BME280;6581;42.662;23.402;2022-10-16T11:22:13;96139.97;;;17.23;41.87
13029;BME280;6581;42.662;23.402;2022-10-16T11:24:45;96149.19;;;17.40;42.61
13029;BME280;6581;42.662;23.402;2022-10-16T11:27:17;96142.34;;;17.60;42.20
13029;BME280;6581;42.662;23.402;2022-10-16T11:29:52;96141.97;;;17.61;42.31
13029;BME280;6581;42.662;23.402;2022-10-16T11:32:25;96131.63;;;17.67;41.99
13029;BME280;6581;42.662;23.402;2022-10-16T11:35:00;96139.25;;;17.58;42.29
13029;BME280;6581;42.662;23.402;2022-10-16T11:37:32;96135.84;;;17.61;42.52
13029;BME280;6581;42.662;23.402;2022-10-16T11:40:31;96144.97;;;17.35;42.81
13029;BME280;6581;42.662;23.402;2022-10-16T11:43:04;96142.28;;;17.42;42.74
13029;BME280;6581;42.662;23.402;2022-10-16T11:45:40;96135.47;;;17.62;43.28
13029;BME280;6581;42.662;23.402;2022-10-16T11:48:17;96133.19;;;17.86;42.92
13029;BME280;6581;42.662;23.402;2022-10-16T11:50:52;96136.25;;;17.95;41.62
13029;BME280;6581;42.662;23.402;2022-10-16T11:53:25;96139.69;;;18.09;42.02
13029;BME280;6581;42.662;23.402;2022-10-16T11:55:54;96141.97;;;18.18;42.18
13029;BME280;6581;42.662;23.402;2022-10-16T11:58:26;96141.94;;;18.32;42.26
13029;BME280;6581;42.662;23.402;2022-10-16T12:00:59;96143.81;;;18.42;41.60
13029;BME280;6581;42.662;23.402;2022-10-16T12:03:31;96135.03;;;18.56;41.53
13029;BME280;6581;42.662;23.402;2022-10-16T12:06:13;96136.47;;;18.75;40.65
13029;BME280;6581;42.662;23.402;2022-10-16T12:08:46;96141.53;;;18.55;39.35
13029;BME280;6581;42.662;23.402;2022-10-16T12:11:24;96148.06;;;18.29;39.44
13029;BME280;6581;42.662;23.402;2022-10-16T12:14:20;96141.59;;;18.09;39.15
13029;BME280;6581;42.662;23.402;2022-10-16T12:16:52;96135.81;;;18.10;39.17
13029;BME280;6581;42.662;23.402;2022-10-16T12:19:21;96141.56;;;18.16;40.31
13029;BME280;6581;42.662;23.402;2022-10-16T12:21:50;96140.44;;;18.10;41.25
13029;BME280;6581;42.662;23.402;2022-10-16T12:24:29;96135.84;;;18.07;41.54
13029;BME280;6581;42.662;23.402;2022-10-16T12:27:00;96132.38;;;18.21;41.72
13029;BME280;6581;42.662;23.402;2022-10-16T12:29:54;96130.81;;;18.41;40.30
13029;BME280;6581;42.662;23.402;2022-10-16T12:32:28;96133.47;;;18.55;41.01
13029;BME280;6581;42.662;23.402;2022-10-16T12:34:57;96132.28;;;18.74;40.84
13029;BME280;6581;42.662;23.402;2022-10-16T12:37:29;96140.66;;;18.86;40.92
13029;BME280;6581;42.662;23.402;2022-10-16T12:39:58;96142.53;;;18.93;39.82
13029;BME280;6581;42.662;23.402;2022-10-16T12:42:34;96132.56;;;18.97;39.71
13029;BME280;6581;42.662;23.402;2022-10-16T12:45:01;96140.56;;;19.08;39.77
13029;BME280;6581;42.662;23.402;2022-10-16T12:47:48;96144.88;;;18.84;40.63
13029;BME280;6581;42.662;23.402;2022-10-16T12:50:25;96147.53;;;18.91;40.42
13029;BME280;6581;42.662;23.402;2022-10-16T12:52:54;96136.34;;;19.03;40.42
13029;BME280;6581;42.662;23.402;2022-10-16T12:55:22;96134.41;;;19.07;39.11
13029;BME280;6581;42.662;23.402;2022-10-16T12:58:16;96142.09;;;19.09;38.13
13029;BME280;6581;42.662;23.402;2022-10-16T13:00:53;96144.88;;;18.87;38.47
13029;BME280;6581;42.662;23.402;2022-10-16T13:06:25;96147.66;;;18.59;37.79
13029;BME280;6581;42.662;23.402;2022-10-16T13:09:15;96144.19;;;18.62;37.66
13029;BME280;6581;42.662;23.402;2022-10-16T13:12:09;96148.31;;;18.84;37.80
13029;BME280;6581;42.662;23.402;2022-10-16T13:18:02;96153.22;;;19.03;38.44
13029;BME280;6581;42.662;23.402;2022-10-16T13:20:35;96146.72;;;19.01;38.22
13029;BME280;6581;42.662;23.402;2022-10-16T13:23:12;96140.94;;;19.02;37.11
13029;BME280;6581;42.662;23.402;2022-10-16T13:25:53;96150.09;;;19.19;37.55
13029;BME280;6581;42.662;23.402;2022-10-16T13:28:30;96147.34;;;19.33;37.94
13029;BME280;6581;42.662;23.402;2022-10-16T13:31:00;96150.75;;;19.44;37.98
13029;BME280;6581;42.662;23.402;2022-10-16T13:33:32;96146.81;;;19.60;37.70
13029;BME280;6581;42.662;23.402;2022-10-16T13:36:00;96148.63;;;19.73;38.54